Etusivu
METAR-TAF:

METAR-TAF

Lentoasemat :

Searcy Municipal Airport

Searcy, Arkansas, Yhdysvallat

Leveyspiiri: 35-12-43N, Pituuspiiri: 091-44-14W, korkeus merenpinnasta: 81 m

Tämänhetkinen sää

Tämä raportti tehtiin 1 tunti ja 7 minuuttia sitten, kello 10.56 UTC
Tuuli 9 kn etelästä
Lämpötila 10°C
Kosteus 100%
Ilmanpaine 1009 hPa
Näkyvyys: 9.7 km
Pilvistä 400 ft:n korkeudessa
heikkoa sadetta, utua

METAR: KSRC 241056Z AUTO 17009KT 6SM -RA BR OVC004 10/10 A2979 RMK AO2 RAE13B39 SLP085 P0002 T01000100

Aika: 06:03 (12:03 UTC)


TAF: puuttuu

Säähavainnot ja -ennusteet yli 4000 lentoasemalta (METAR- ja TAF-raportit).

Käytössä olevat sääasemat on merkitty karttaan keltaisilla ja punaisilla pisteillä.

Aseta hiiri pisteen päälle nähdäksesi sääaseman nimen.

Klikkaa sitten nähdäksesi säähavainnot ja -ennusteet.

Kartan vaihtaminen: klikkaa mustalla rastilla varustettuja vihreitä pisteitä, niin voit zoomata sisään; viivalla varustettua vihreää pistettä, niin voit zoomata ulos tai vihreitä nuolia, niin pääset viereisille kartoille.


METAR-TAF: